LFBL/LIG METAR and TAF weather

Enter ICAO airport designator
Station Type Date Time Source
LFBL METAR 2020/04/06 12:00 UTC NOAA

LFBL 061200Z AUTO 18008KT CAVOK 14/01 Q1022


Station Type Date Time Source
LFBL Decoded METAR 2020/04/06 12:00 UTC NOAA

Limoges, France (LFBL) 45-52N 001-11E 402M
Apr 06, 2020 - 08:00 AM EDT / 2020.04.06 1200 UTC
Wind: from the S (180 degrees) at 9 MPH (8 KT):0
Visibility: greater than 7 mile(s):0
Temperature: 57 F (14 C)
Dew Point: 33 F (1 C)
Relative Humidity: 41%
Pressure (altimeter): 30.18 in. Hg (1022 hPa)
ob: LFBL 061200Z AUTO 18008KT CAVOK 14/01 Q1022
cycle: 12

Station Type Date Time Source
LFBL TAF 2020/03/27 18:59 UTC NOAA

TAF LFBL 271854Z 2718/2818 CNL

Example: see airport list